MSC Maria Saveria — 3FLE8 — position and weather

sailwx.info

Track history (hours):
 
Tides and Currents Weather Stations Pressure Air Temp Water Temp Dewpoint Dewpoint Depression Visibility Wind Speed Wind Dir Waves Ship Positions

MSC Maria Saveria

Last reported at 2015-Mar-29 09:12 UTC. Time now 2015-Mar-30 07:09 UTC.
Position N 01°12' E 103°51'.

Length 366 m; draft 14.5 m.

Type: Ship (hazmat cat A). MMSI: 372400000.

Date/timePositionNaut miles runAvg speedWind from/ knotsBaromVisibWave heightAir tempDewpointWater temp
2015-Mar-29 09:12N 01°12' E 103°51'913.6
2015-Mar-29 08:32N 01°15' E 103°59'  
2015-Mar-25 16:11N 22°34' E 114°18'17 6.2
2015-Mar-25 13:30N 22°22' E 114°30'23315.6
2015-Mar-24 22:33N 24°02' E 118°19'1716.8
2015-Mar-24 21:33N 24°18' E 118°13'1212.5
2015-Mar-24 20:33N 24°26' E 118°03'1 0.7
2015-Mar-24 19:27N 24°26' E 118°02'0 0.0
2015-Mar-24 18:15N 24°26' E 118°02'0 0.0
2015-Mar-24 17:27N 24°26' E 118°02'0 0.0
2015-Mar-24 16:33N 24°26' E 118°02'0 0.0
2015-Mar-24 14:27N 24°26' E 118°02'0 0.0
2015-Mar-24 13:33N 24°26' E 118°02'0 0.0
2015-Mar-24 12:15N 24°26' E 118°02'0 0.0
2015-Mar-24 11:13N 24°26' E 118°02'1 0.8
2015-Mar-24 10:32N 24°26' E 118°03'10 9.4
2015-Mar-24 09:28N 24°20' E 118°11'1213.4
2015-Mar-24 08:33N 24°11' E 118°21'1513.6
2015-Mar-24 07:29N 24°13' E 118°37'2719.4
2015-Mar-24 06:04N 24°27' E 119°02'1120.7
2015-Mar-24 05:33N 24°33' E 119°12'40018.0
2015-Mar-23 07:23N 30°17' E 123°00'2619.9
2015-Mar-23 06:04N 30°30' E 122°34'918.1
2015-Mar-23 05:33N 30°32' E 122°23'1212.4
2015-Mar-23 04:33N 30°34' E 122°09'6 6.4
2015-Mar-23 03:33N 30°38' E 122°03'0 0.0
2015-Mar-23 02:30N 30°38' E 122°03'0 0.0
2015-Mar-23 01:30N 30°38' E 122°03'0 0.0
2015-Mar-23 00:33N 30°38' E 122°03'0 0.0
2015-Mar-22 23:24N 30°38' E 122°03'0 0.0
2015-Mar-22 21:33N 30°38' E 122°03'0 0.0
2015-Mar-22 20:15N 30°38' E 122°03'0 0.0
2015-Mar-22 19:24N 30°38' E 122°03'0 0.0
2015-Mar-22 14:30N 30°38' E 122°03'0 0.1
2015-Mar-22 12:33N 30°38' E 122°03'0 0.4
2015-Mar-22 11:33N 30°37' E 122°03'6 5.7
2015-Mar-22 10:33N 30°34' E 122°09'1010.0
2015-Mar-22 09:32N 30°33' E 122°20'9 9.4
2015-Mar-22 08:34N 30°31' E 122°31'1817.8
2015-Mar-22 07:34N 30°25' E 122°50'1918.3
2015-Mar-22 06:30N 30°08' E 123°01'1717.5
2015-Mar-22 05:31N 29°54' E 122°50'1717.8
2015-Mar-22 04:33N 29°42' E 122°36'1515.2
2015-Mar-22 03:33N 29°45' E 122°19'1111.3
2015-Mar-22 02:33N 29°53' E 122°10'6 6.1
2015-Mar-22 01:33N 29°53' E 122°03'0 0.0
2015-Mar-22 00:33N 29°53' E 122°03'0 0.0
2015-Mar-21 23:33N 29°53' E 122°03'0 0.1
2015-Mar-21 22:33N 29°53' E 122°03'0 0.1
2015-Mar-21 21:33N 29°53' E 122°03'0 0.0
2015-Mar-21 20:34N 29°53' E 122°03'0 0.0
2015-Mar-21 19:34N 29°53' E 122°03'0 0.0
2015-Mar-21 18:34N 29°53' E 122°03'0 0.1
2015-Mar-21 17:34N 29°53' E 122°03'0 0.0
2015-Mar-21 16:33N 29°53' E 122°03'0 0.1
2015-Mar-21 15:34N 29°53' E 122°03'0 0.0
2015-Mar-21 14:34N 29°53' E 122°03'0 0.0
2015-Mar-21 13:33N 29°53' E 122°03'0 0.0
2015-Mar-21 12:33N 29°53' E 122°03'0 0.0
2015-Mar-21 11:33N 29°53' E 122°03'0 0.3
2015-Mar-21 10:33N 29°54' E 122°03'6 6.2
2015-Mar-21 09:33N 29°55' E 122°10'1110.8
2015-Mar-21 08:33N 29°46' E 122°18'5 5.0
2015-Mar-21 07:27N 29°46' E 122°24'0 0.0
2015-Mar-21 06:27N 29°46' E 122°24'0 0.0
2015-Mar-21 02:24N 29°46' E 122°24'0 0.1
2015-Mar-21 01:03N 29°46' E 122°24'0 0.0
2015-Mar-21 00:33N 29°46' E 122°24'0 0.0
2015-Mar-20 23:27N 29°46' E 122°24'0 0.1
2015-Mar-20 22:33N 29°46' E 122°24'0 0.2
2015-Mar-20 21:27N 29°46' E 122°24'0 0.1
2015-Mar-20 20:27N 29°46' E 122°24'0 0.0
2015-Mar-20 17:27N 29°46' E 122°24'0 0.0
2015-Mar-20 16:27N 29°46' E 122°24'0 0.1
2015-Mar-20 15:27N 29°46' E 122°24'0 0.1
2015-Mar-20 13:27N 29°46' E 122°24'0 0.1
2015-Mar-20 12:27N 29°46' E 122°24'0 0.1
2015-Mar-20 11:04N 29°46' E 122°24'3 5.1
2015-Mar-20 10:33N 29°44' E 122°25'1515.4
2015-Mar-20 09:33N 29°48' E 122°42'1716.9
2015-Mar-20 08:33N 29°59' E 122°57'3416.1
2015-Mar-20 06:25N 30°28' E 123°17'  
Track history (hours):
 
Tides and Currents Weather Stations Pressure Air Temp Water Temp Dewpoint Dewpoint Depression Visibility Wind Speed Wind Dir Waves Ship Positions

MSC Maria Saveria

Last reported at 2015-Mar-29 09:12 UTC. Time now 2015-Mar-30 07:09 UTC.
Position N 01°12' E 103°51'.

Length 366 m; draft 14.5 m.

Type: Ship (hazmat cat A). MMSI: 372400000.

Date/timePositionNaut miles runAvg speedWind from/ knotsBaromVisibWave heightAir tempDewpointWater temp
2015-Mar-29 09:12N 01°12' E 103°51'913.6
2015-Mar-29 08:32N 01°15' E 103°59'  
2015-Mar-25 16:11N 22°34' E 114°18'17 6.2
2015-Mar-25 13:30N 22°22' E 114°30'23315.6
2015-Mar-24 22:33N 24°02' E 118°19'1716.8
2015-Mar-24 21:33N 24°18' E 118°13'1212.5
2015-Mar-24 20:33N 24°26' E 118°03'1 0.7
2015-Mar-24 19:27N 24°26' E 118°02'0 0.0
2015-Mar-24 18:15N 24°26' E 118°02'0 0.0
2015-Mar-24 17:27N 24°26' E 118°02'0 0.0
2015-Mar-24 16:33N 24°26' E 118°02'0 0.0
2015-Mar-24 14:27N 24°26' E 118°02'0 0.0
2015-Mar-24 13:33N 24°26' E 118°02'0 0.0
2015-Mar-24 12:15N 24°26' E 118°02'0 0.0
2015-Mar-24 11:13N 24°26' E 118°02'1 0.8
2015-Mar-24 10:32N 24°26' E 118°03'10 9.4
2015-Mar-24 09:28N 24°20' E 118°11'1213.4
2015-Mar-24 08:33N 24°11' E 118°21'1513.6
2015-Mar-24 07:29N 24°13' E 118°37'2719.4
2015-Mar-24 06:04N 24°27' E 119°02'1120.7
2015-Mar-24 05:33N 24°33' E 119°12'40018.0
2015-Mar-23 07:23N 30°17' E 123°00'2619.9
2015-Mar-23 06:04N 30°30' E 122°34'918.1
2015-Mar-23 05:33N 30°32' E 122°23'1212.4
2015-Mar-23 04:33N 30°34' E 122°09'6 6.4
2015-Mar-23 03:33N 30°38' E 122°03'0 0.0
2015-Mar-23 02:30N 30°38' E 122°03'0 0.0
2015-Mar-23 01:30N 30°38' E 122°03'0 0.0
2015-Mar-23 00:33N 30°38' E 122°03'0 0.0
2015-Mar-22 23:24N 30°38' E 122°03'0 0.0
2015-Mar-22 21:33N 30°38' E 122°03'0 0.0
2015-Mar-22 20:15N 30°38' E 122°03'0 0.0
2015-Mar-22 19:24N 30°38' E 122°03'0 0.0
2015-Mar-22 14:30N 30°38' E 122°03'0 0.1
2015-Mar-22 12:33N 30°38' E 122°03'0 0.4
2015-Mar-22 11:33N 30°37' E 122°03'6 5.7
2015-Mar-22 10:33N 30°34' E 122°09'1010.0
2015-Mar-22 09:32N 30°33' E 122°20'9 9.4
2015-Mar-22 08:34N 30°31' E 122°31'1817.8
2015-Mar-22 07:34N 30°25' E 122°50'1918.3
2015-Mar-22 06:30N 30°08' E 123°01'1717.5
2015-Mar-22 05:31N 29°54' E 122°50'1717.8
2015-Mar-22 04:33N 29°42' E 122°36'1515.2
2015-Mar-22 03:33N 29°45' E 122°19'1111.3
2015-Mar-22 02:33N 29°53' E 122°10'6 6.1
2015-Mar-22 01:33N 29°53' E 122°03'0 0.0
2015-Mar-22 00:33N 29°53' E 122°03'0 0.0
2015-Mar-21 23:33N 29°53' E 122°03'0 0.1
2015-Mar-21 22:33N 29°53' E 122°03'0 0.1
2015-Mar-21 21:33N 29°53' E 122°03'0 0.0
2015-Mar-21 20:34N 29°53' E 122°03'0 0.0
2015-Mar-21 19:34N 29°53' E 122°03'0 0.0
2015-Mar-21 18:34N 29°53' E 122°03'0 0.1
2015-Mar-21 17:34N 29°53' E 122°03'0 0.0
2015-Mar-21 16:33N 29°53' E 122°03'0 0.1
2015-Mar-21 15:34N 29°53' E 122°03'0 0.0
2015-Mar-21 14:34N 29°53' E 122°03'0 0.0
2015-Mar-21 13:33N 29°53' E 122°03'0 0.0
2015-Mar-21 12:33N 29°53' E 122°03'0 0.0
2015-Mar-21 11:33N 29°53' E 122°03'0 0.3
2015-Mar-21 10:33N 29°54' E 122°03'6 6.2
2015-Mar-21 09:33N 29°55' E 122°10'1110.8
2015-Mar-21 08:33N 29°46' E 122°18'5 5.0
2015-Mar-21 07:27N 29°46' E 122°24'0 0.0
2015-Mar-21 06:27N 29°46' E 122°24'0 0.0
2015-Mar-21 02:24N 29°46' E 122°24'0 0.1
2015-Mar-21 01:03N 29°46' E 122°24'0 0.0
2015-Mar-21 00:33N 29°46' E 122°24'0 0.0
2015-Mar-20 23:27N 29°46' E 122°24'0 0.1
2015-Mar-20 22:33N 29°46' E 122°24'0 0.2
2015-Mar-20 21:27N 29°46' E 122°24'0 0.1
2015-Mar-20 20:27N 29°46' E 122°24'0 0.0
2015-Mar-20 17:27N 29°46' E 122°24'0 0.0
2015-Mar-20 16:27N 29°46' E 122°24'0 0.1
2015-Mar-20 15:27N 29°46' E 122°24'0 0.1
2015-Mar-20 13:27N 29°46' E 122°24'0 0.1
2015-Mar-20 12:27N 29°46' E 122°24'0 0.1
2015-Mar-20 11:04N 29°46' E 122°24'3 5.1
2015-Mar-20 10:33N 29°44' E 122°25'1515.4
2015-Mar-20 09:33N 29°48' E 122°42'1716.9
2015-Mar-20 08:33N 29°59' E 122°57'3416.1
2015-Mar-20 06:25N 30°28' E 123°17'  

Dump ship's entire track history